createdAt,value
2018-12-20T00:00:09.744Z,1.30
2018-12-20T00:05:12.254Z,1.60
2018-12-20T00:10:14.768Z,1.37
2018-12-20T00:15:17.354Z,1.30
2018-12-20T00:20:19.924Z,1.15
2018-12-20T00:25:22.537Z,1.27
2018-12-20T00:30:25.262Z,1.27
2018-12-20T00:35:27.926Z,1.27
2018-12-20T00:40:31.022Z,1.50
2018-12-20T00:45:33.718Z,1.30
2018-12-20T00:50:36.446Z,1.20
2018-12-20T00:55:39.437Z,1.23
2018-12-20T01:00:41.944Z,1.50
2018-12-20T01:05:44.502Z,1.57
2018-12-20T01:10:47.000Z,1.40
2018-12-20T01:15:49.491Z,1.00
2018-12-20T01:20:52.105Z,1.10
2018-12-20T01:25:54.927Z,1.30
2018-12-20T01:30:57.594Z,1.40
2018-12-20T01:36:00.893Z,1.10
2018-12-20T01:41:03.496Z,1.40
2018-12-20T01:46:06.193Z,1.13
2018-12-20T01:51:08.877Z,1.27
2018-12-20T01:56:12.215Z,1.10
2018-12-20T02:01:14.929Z,1.50
2018-12-20T02:06:17.670Z,1.60
2018-12-20T02:11:20.548Z,1.10
2018-12-20T02:16:23.256Z,1.30
2018-12-20T02:21:25.965Z,1.10
2018-12-20T02:26:28.710Z,1.30
2018-12-20T02:31:31.575Z,1.50
2018-12-20T02:36:34.618Z,1.00
2018-12-20T02:41:38.125Z,1.10
2018-12-20T02:46:40.791Z,1.23
2018-12-20T02:51:43.454Z,1.10
2018-12-20T02:56:46.389Z,1.07
2018-12-20T03:01:49.262Z,1.50
2018-12-20T03:06:51.893Z,1.40
2018-12-20T03:11:54.377Z,0.83
2018-12-20T03:16:57.056Z,0.97
2018-12-20T03:21:59.964Z,1.20
2018-12-20T03:27:02.676Z,0.83
2018-12-20T03:32:05.365Z,1.30
2018-12-20T03:37:08.049Z,1.07
2018-12-20T03:42:10.794Z,1.30
2018-12-20T03:47:14.227Z,1.00
2018-12-20T03:52:17.053Z,1.20
2018-12-20T03:57:19.822Z,1.10
2018-12-20T04:02:24.451Z,1.17
2018-12-20T04:07:27.497Z,1.10
2018-12-20T04:12:30.320Z,1.17
2018-12-20T04:17:33.050Z,0.80
2018-12-20T04:22:35.730Z,1.23
2018-12-20T04:27:39.436Z,1.30
2018-12-20T04:32:42.073Z,0.97
2018-12-20T04:37:45.246Z,1.07
2018-12-20T04:42:47.941Z,1.10
2018-12-20T04:47:50.808Z,1.00
2018-12-20T04:52:53.596Z,1.10
2018-12-20T04:57:56.255Z,1.10
2018-12-20T05:02:58.931Z,1.20
2018-12-20T05:08:01.721Z,0.90
2018-12-20T05:13:04.485Z,1.30
2018-12-20T05:18:07.042Z,1.00
2018-12-20T05:23:09.912Z,1.20
2018-12-20T05:28:12.553Z,1.00
2018-12-20T05:33:15.524Z,1.10
2018-12-20T05:38:18.143Z,1.40
2018-12-20T05:43:20.920Z,1.27
2018-12-20T05:48:24.055Z,1.40
2018-12-20T05:53:26.814Z,1.20
2018-12-20T05:58:29.505Z,1.33
2018-12-20T06:03:32.012Z,1.10
2018-12-20T06:08:34.664Z,1.10
2018-12-20T06:13:37.460Z,1.00
2018-12-20T06:18:40.957Z,1.70
2018-12-20T06:23:43.613Z,1.30
2018-12-20T06:28:46.305Z,1.30
2018-12-20T06:33:48.948Z,1.00
2018-12-20T06:38:51.698Z,0.97
2018-12-20T06:43:54.163Z,1.33
2018-12-20T06:48:56.628Z,1.00
2018-12-20T06:53:59.092Z,1.27
2018-12-20T06:59:01.591Z,1.20
2018-12-20T07:04:04.076Z,1.10
2018-12-20T07:09:07.691Z,1.00
2018-12-20T07:14:10.147Z,1.20
2018-12-20T07:19:12.614Z,1.20
2018-12-20T07:24:15.976Z,0.90
2018-12-20T07:29:18.450Z,1.10
2018-12-20T07:34:20.945Z,1.23
2018-12-20T07:39:23.432Z,0.97
2018-12-20T07:44:25.900Z,0.90
2018-12-20T07:49:28.365Z,0.90
2018-12-20T07:54:30.837Z,1.27
2018-12-20T07:59:33.300Z,3.87
2018-12-20T08:04:35.784Z,7.57
2018-12-20T08:09:38.741Z,9.80
2018-12-20T08:14:41.241Z,9.10
2018-12-20T08:19:43.712Z,7.33
2018-12-20T08:24:46.184Z,6.17
2018-12-20T08:29:49.617Z,4.83
2018-12-20T08:34:52.085Z,4.33
2018-12-20T08:39:55.024Z,4.23
2018-12-20T08:44:57.488Z,3.60
2018-12-20T08:49:59.952Z,3.40
2018-12-20T08:55:02.577Z,3.30
2018-12-20T09:00:07.624Z,3.47
2018-12-20T09:05:10.126Z,2.77
2018-12-20T09:10:13.437Z,2.80
2018-12-20T09:15:15.960Z,2.80
2018-12-20T09:20:18.550Z,2.97
2018-12-20T09:25:21.667Z,2.77
2018-12-20T09:30:30.476Z,2.97
2018-12-20T09:35:28.702Z,3.10
2018-12-20T09:40:31.432Z,3.27
2018-12-20T09:45:33.936Z,3.13
2018-12-20T09:50:36.655Z,4.73
2018-12-20T09:55:39.120Z,7.80
2018-12-20T10:00:41.604Z,8.87
2018-12-20T10:05:44.119Z,9.37
2018-12-20T10:10:46.699Z,11.10
2018-12-20T10:15:49.196Z,11.67
2018-12-20T10:20:51.664Z,12.13
2018-12-20T10:25:54.165Z,12.33
2018-12-20T10:30:56.701Z,12.80
2018-12-20T10:35:59.204Z,11.90
2018-12-20T10:41:01.680Z,11.50
2018-12-20T10:46:04.212Z,11.00
2018-12-20T10:51:06.687Z,10.97
2018-12-20T10:56:09.206Z,10.93
2018-12-20T11:01:17.445Z,10.87
2018-12-20T11:06:25.465Z,11.67
2018-12-20T11:11:29.888Z,10.23
2018-12-20T11:16:41.120Z,10.53
2018-12-20T11:21:45.676Z,10.23
2018-12-20T11:26:48.102Z,10.40
2018-12-20T11:31:50.580Z,9.57
2018-12-20T11:36:53.053Z,9.87
2018-12-20T11:41:55.525Z,9.13
2018-12-20T11:46:58.009Z,10.03
2018-12-20T11:52:00.477Z,9.23
2018-12-20T11:57:02.941Z,9.33
2018-12-20T12:02:05.461Z,8.80
2018-12-20T12:07:08.082Z,8.63
2018-12-20T12:12:10.815Z,9.43
2018-12-20T12:17:13.550Z,8.57
2018-12-20T12:22:16.044Z,8.87
2018-12-20T12:27:18.701Z,8.63
2018-12-20T12:32:21.172Z,8.77
2018-12-20T12:37:23.708Z,8.17
2018-12-20T12:42:26.248Z,8.07
2018-12-20T12:47:34.456Z,8.07
2018-12-20T12:52:36.927Z,7.60
2018-12-20T12:57:39.457Z,7.80
2018-12-20T13:02:42.025Z,7.23
2018-12-20T13:07:44.520Z,8.13
2018-12-20T13:12:46.996Z,7.53
2018-12-20T13:17:49.712Z,7.43
2018-12-20T13:22:52.400Z,7.93
2018-12-20T13:27:54.892Z,6.90
2018-12-20T13:32:58.163Z,7.67
2018-12-20T13:38:00.636Z,7.03
2018-12-20T13:43:03.193Z,6.53
2018-12-20T13:48:05.737Z,7.53
2018-12-20T13:53:08.209Z,7.00
2018-12-20T13:58:10.716Z,6.97
2018-12-20T14:03:13.180Z,6.63
2018-12-20T14:08:15.754Z,6.67
2018-12-20T14:13:18.248Z,6.43
2018-12-20T14:18:20.712Z,6.70
2018-12-20T14:23:23.336Z,6.33
2018-12-20T14:28:25.885Z,6.53
2018-12-20T14:33:29.231Z,6.43
2018-12-20T14:38:32.144Z,6.47
2018-12-20T14:43:34.645Z,6.40
2018-12-20T14:48:39.461Z,6.27
2018-12-20T14:53:41.773Z,5.80
2018-12-20T14:58:44.288Z,5.77
2018-12-20T15:03:46.764Z,5.73
2018-12-20T15:08:49.612Z,6.00
2018-12-20T15:13:52.093Z,5.53
2018-12-20T15:18:54.592Z,5.57
2018-12-20T15:23:57.070Z,6.83
2018-12-20T15:28:59.553Z,7.07
2018-12-20T15:34:02.045Z,9.00
2018-12-20T15:39:06.952Z,8.80
2018-12-20T15:44:09.450Z,8.23
2018-12-20T15:49:11.932Z,8.77
2018-12-20T15:54:14.573Z,8.77
2018-12-20T15:59:17.112Z,9.70
2018-12-20T16:04:19.621Z,10.17
2018-12-20T16:09:22.165Z,10.43
2018-12-20T16:14:24.703Z,10.57
2018-12-20T16:19:27.212Z,9.63
2018-12-20T16:24:29.676Z,9.17
2018-12-20T16:29:32.172Z,8.63
2018-12-20T16:34:34.672Z,8.73
2018-12-20T16:39:37.140Z,9.07
2018-12-20T16:44:39.656Z,7.57
2018-12-20T16:49:42.741Z,8.40
2018-12-20T16:54:45.212Z,8.17
2018-12-20T16:59:47.853Z,7.63
2018-12-20T17:04:50.324Z,7.90
2018-12-20T17:09:52.797Z,7.50
2018-12-20T17:14:55.292Z,7.83
2018-12-20T17:19:57.756Z,6.87
2018-12-20T17:25:00.392Z,6.50
2018-12-20T17:30:02.911Z,7.50
2018-12-20T17:35:05.546Z,6.67
2018-12-20T17:40:08.181Z,6.10
2018-12-20T17:45:10.994Z,6.17
2018-12-20T17:50:13.492Z,5.47
2018-12-20T17:55:15.955Z,6.10
2018-12-20T18:00:18.609Z,5.93
2018-12-20T18:05:21.112Z,5.33
2018-12-20T18:10:23.608Z,5.28
2018-12-20T18:15:26.409Z,5.40
2018-12-20T18:20:28.869Z,4.60
2018-12-20T18:25:31.768Z,5.00
2018-12-20T18:30:34.881Z,7.47
2018-12-20T18:35:37.872Z,6.30
2018-12-20T18:40:40.889Z,7.63
2018-12-20T18:45:44.704Z,7.93
2018-12-20T18:50:47.169Z,8.23
2018-12-20T18:55:49.650Z,8.07
2018-12-20T19:00:52.140Z,8.10
2018-12-20T19:05:54.785Z,8.17
2018-12-20T19:10:57.256Z,8.13
2018-12-20T19:15:59.720Z,8.20
2018-12-20T19:21:02.188Z,9.00
2018-12-20T19:26:04.668Z,9.87
2018-12-20T19:31:07.147Z,8.30
2018-12-20T19:36:09.636Z,8.47
2018-12-20T19:41:13.043Z,8.83
2018-12-20T19:46:15.935Z,8.13
2018-12-20T19:51:19.059Z,8.13
2018-12-20T19:56:22.357Z,8.93
2018-12-20T20:01:25.566Z,8.07
2018-12-20T20:06:28.674Z,7.83
2018-12-20T20:11:31.667Z,7.73
2018-12-20T20:16:34.676Z,6.87
2018-12-20T20:21:37.689Z,7.10
2018-12-20T20:26:40.694Z,6.17
2018-12-20T20:31:43.193Z,6.53
2018-12-20T20:36:45.729Z,6.70
2018-12-20T20:41:48.196Z,6.60
2018-12-20T20:46:51.334Z,6.10
2018-12-20T20:51:54.894Z,5.70
2018-12-20T20:56:57.565Z,5.77
2018-12-20T21:02:00.064Z,5.90
2018-12-20T21:07:02.565Z,6.87
2018-12-20T21:12:05.056Z,5.87
2018-12-20T21:17:07.534Z,5.97
2018-12-20T21:22:10.127Z,5.70
2018-12-20T21:27:12.620Z,5.53
2018-12-20T21:32:15.122Z,6.63
2018-12-20T21:37:17.597Z,6.47
2018-12-20T21:42:20.132Z,6.07
2018-12-20T21:47:22.601Z,5.77
2018-12-20T21:52:25.068Z,5.47
2018-12-20T21:57:27.610Z,6.57
2018-12-20T22:02:30.149Z,5.30
2018-12-20T22:07:32.672Z,5.57
2018-12-20T22:12:35.155Z,5.03
2018-12-20T22:17:37.632Z,5.37
2018-12-20T22:22:40.229Z,4.97
2018-12-20T22:27:42.816Z,5.10
2018-12-20T22:32:46.570Z,4.87
2018-12-20T22:37:50.226Z,5.13
2018-12-20T22:42:52.696Z,5.27
2018-12-20T22:47:55.233Z,4.63
2018-12-20T22:52:57.981Z,4.53
2018-12-20T22:58:00.529Z,4.97
2018-12-20T23:03:03.165Z,4.97
2018-12-20T23:08:05.665Z,4.67
2018-12-20T23:13:08.161Z,4.53
2018-12-20T23:18:10.884Z,4.60
2018-12-20T23:23:14.113Z,4.60
2018-12-20T23:28:16.597Z,4.57
2018-12-20T23:33:19.063Z,4.53
2018-12-20T23:38:21.528Z,4.17
2018-12-20T23:43:24.024Z,4.37
2018-12-20T23:48:26.483Z,4.27
2018-12-20T23:53:29.869Z,3.90
2018-12-20T23:58:32.360Z,3.60
